createdAt,value
2023-08-16T00:01:04.697Z,15.78
2023-08-16T00:03:33.725Z,15.75
2023-08-16T00:06:10.540Z,15.70
2023-08-16T00:08:39.143Z,15.68
2023-08-16T00:11:07.542Z,15.65
2023-08-16T00:13:35.139Z,15.63
2023-08-16T00:16:05.161Z,15.62
2023-08-16T00:18:33.515Z,15.63
2023-08-16T00:21:02.439Z,15.62
2023-08-16T00:23:31.115Z,15.58
2023-08-16T00:25:59.528Z,15.58
2023-08-16T00:28:28.668Z,15.56
2023-08-16T00:30:58.092Z,15.52
2023-08-16T00:33:27.784Z,15.52
2023-08-16T00:35:56.086Z,15.52
2023-08-16T00:38:24.565Z,15.54
2023-08-16T00:40:53.584Z,15.54
2023-08-16T00:43:22.376Z,15.52
2023-08-16T00:45:51.394Z,15.51
2023-08-16T00:48:22.466Z,15.47
2023-08-16T00:50:52.498Z,15.47
2023-08-16T00:53:21.229Z,15.45
2023-08-16T00:55:49.662Z,15.46
2023-08-16T00:58:18.781Z,15.44
2023-08-16T01:00:47.133Z,15.45
2023-08-16T01:03:15.460Z,15.43
2023-08-16T01:05:43.836Z,15.42
2023-08-16T01:08:13.824Z,15.43
2023-08-16T01:10:52.881Z,15.45
2023-08-16T01:13:27.075Z,15.46
2023-08-16T01:15:59.183Z,15.46
2023-08-16T01:18:29.420Z,15.45
2023-08-16T01:20:58.490Z,15.50
2023-08-16T01:23:38.494Z,15.57
2023-08-16T01:26:17.518Z,15.64
2023-08-16T01:28:49.574Z,15.67
2023-08-16T01:31:18.902Z,15.67
2023-08-16T01:33:47.350Z,15.64
2023-08-16T01:36:15.731Z,15.62
2023-08-16T01:38:45.786Z,15.62
2023-08-16T01:41:27.786Z,15.61
2023-08-16T01:43:59.128Z,15.59
2023-08-16T01:46:29.987Z,15.60
2023-08-16T01:49:00.554Z,15.61
2023-08-16T01:51:29.145Z,15.61
2023-08-16T01:53:57.678Z,15.59
2023-08-16T01:56:25.986Z,15.59
2023-08-16T01:58:54.325Z,15.60
2023-08-16T02:01:24.077Z,15.58
2023-08-16T02:03:54.328Z,15.53
2023-08-16T02:06:24.272Z,15.49
2023-08-16T02:08:53.395Z,15.48
2023-08-16T02:11:22.106Z,15.46
2023-08-16T02:13:50.468Z,15.42
2023-08-16T02:16:18.965Z,15.41
2023-08-16T02:18:48.813Z,15.38
2023-08-16T02:21:17.072Z,15.34
2023-08-16T02:23:45.454Z,15.34
2023-08-16T02:26:14.715Z,15.32
2023-08-16T02:28:43.139Z,15.32
2023-08-16T02:31:11.397Z,15.29
2023-08-16T02:33:39.830Z,15.29
2023-08-16T02:36:09.485Z,15.29
2023-08-16T02:38:37.807Z,15.26
2023-08-16T02:41:06.362Z,15.25
2023-08-16T02:43:34.678Z,15.31
2023-08-16T02:46:03.370Z,15.41
2023-08-16T02:48:33.638Z,15.50
2023-08-16T02:51:02.570Z,15.63
2023-08-16T02:53:32.367Z,15.72
2023-08-16T02:56:00.627Z,15.84
2023-08-16T02:58:30.367Z,15.94
2023-08-16T03:00:58.776Z,16.00
2023-08-16T03:03:27.116Z,16.11
2023-08-16T03:05:56.419Z,16.18
2023-08-16T03:08:25.666Z,16.21
2023-08-16T03:10:55.349Z,16.30
2023-08-16T03:13:23.675Z,16.34
2023-08-16T03:15:51.996Z,16.36
2023-08-16T03:18:20.342Z,16.39
2023-08-16T03:20:48.777Z,16.40
2023-08-16T03:23:17.088Z,16.39
2023-08-16T03:25:45.624Z,16.33
2023-08-16T03:28:15.697Z,16.25
2023-08-16T03:30:44.037Z,16.20
2023-08-16T03:33:13.468Z,16.14
2023-08-16T03:35:42.825Z,16.10
2023-08-16T03:38:11.652Z,16.06
2023-08-16T03:40:40.453Z,15.99
2023-08-16T03:43:08.834Z,15.89
2023-08-16T03:45:39.389Z,15.76
2023-08-16T03:48:08.085Z,15.69
2023-08-16T03:50:36.458Z,15.71
2023-08-16T03:53:06.028Z,15.73
2023-08-16T03:55:34.265Z,15.75
2023-08-16T03:58:02.624Z,15.80
2023-08-16T04:00:30.888Z,15.86
2023-08-16T04:03:01.908Z,15.91
2023-08-16T04:05:30.545Z,15.98
2023-08-16T04:07:58.981Z,16.07
2023-08-16T04:10:27.315Z,16.11
2023-08-16T04:12:56.179Z,16.08
2023-08-16T04:15:24.939Z,16.07
2023-08-16T04:17:53.408Z,16.04
2023-08-16T04:20:23.353Z,15.99
2023-08-16T04:22:51.840Z,15.95
2023-08-16T04:25:20.860Z,15.89
2023-08-16T04:27:49.225Z,15.82
2023-08-16T04:30:17.932Z,15.77
2023-08-16T04:32:46.304Z,15.71
2023-08-16T04:35:14.807Z,15.63
2023-08-16T04:37:45.222Z,15.56
2023-08-16T04:40:14.411Z,15.50
2023-08-16T04:42:42.668Z,15.45
2023-08-16T04:45:12.118Z,15.42
2023-08-16T04:47:40.624Z,15.39
2023-08-16T04:50:09.567Z,15.36
2023-08-16T04:52:39.031Z,15.34
2023-08-16T04:55:10.195Z,15.34
2023-08-16T04:57:39.721Z,15.36
2023-08-16T05:00:10.302Z,15.40
2023-08-16T05:02:45.797Z,15.40
2023-08-16T05:05:15.322Z,15.40
2023-08-16T05:07:43.710Z,15.38
2023-08-16T05:10:15.353Z,15.34
2023-08-16T05:12:44.082Z,15.27
2023-08-16T05:15:13.421Z,15.23
2023-08-16T05:17:41.818Z,15.22
2023-08-16T05:20:12.454Z,15.19
2023-08-16T05:22:40.798Z,15.16
2023-08-16T05:25:10.352Z,15.15
2023-08-16T05:27:40.357Z,15.15
2023-08-16T05:30:09.717Z,15.17
2023-08-16T05:32:38.027Z,15.18
2023-08-16T05:35:07.104Z,15.23
2023-08-16T05:37:35.670Z,15.26
2023-08-16T05:40:07.025Z,15.31
2023-08-16T05:42:35.423Z,15.35
2023-08-16T05:45:07.862Z,15.40
2023-08-16T05:47:35.899Z,15.31
2023-08-16T05:50:04.435Z,15.45
2023-08-16T05:52:32.782Z,15.56
2023-08-16T05:55:01.038Z,15.66
2023-08-16T05:57:29.358Z,15.79
2023-08-16T05:59:57.739Z,15.99
2023-08-16T06:02:27.796Z,16.33
2023-08-16T06:04:56.364Z,16.70
2023-08-16T06:07:24.826Z,16.93
2023-08-16T06:09:53.804Z,17.00
2023-08-16T06:12:22.080Z,17.15
2023-08-16T06:14:50.440Z,17.32
2023-08-16T06:17:18.745Z,17.42
2023-08-16T06:19:48.758Z,17.54
2023-08-16T06:22:17.144Z,17.68
2023-08-16T06:24:45.449Z,18.09
2023-08-16T06:27:13.856Z,18.79
2023-08-16T06:29:42.083Z,19.17
2023-08-16T06:32:10.416Z,19.12
2023-08-16T06:34:39.566Z,19.26
2023-08-16T06:37:09.245Z,19.31
2023-08-16T06:39:37.633Z,19.20
2023-08-16T06:42:06.544Z,18.97
2023-08-16T06:44:35.766Z,18.71
2023-08-16T06:47:04.074Z,18.54
2023-08-16T06:49:32.723Z,18.49
2023-08-16T06:52:01.043Z,18.74
2023-08-16T06:54:30.787Z,18.92
2023-08-16T06:57:00.005Z,18.99
2023-08-16T06:59:31.237Z,19.12
2023-08-16T07:02:00.216Z,19.21
2023-08-16T07:04:28.580Z,19.16
2023-08-16T07:06:56.828Z,19.06
2023-08-16T07:09:25.544Z,18.95
2023-08-16T07:11:55.152Z,18.85
2023-08-16T07:14:23.559Z,18.88
2023-08-16T07:16:52.745Z,18.88
2023-08-16T07:19:21.997Z,18.94
2023-08-16T07:21:50.505Z,18.93
2023-08-16T07:24:18.796Z,18.85
2023-08-16T07:26:47.107Z,18.77
2023-08-16T07:29:16.988Z,18.76
2023-08-16T07:31:45.737Z,18.83
2023-08-16T07:34:14.028Z,18.93
2023-08-16T07:36:42.317Z,19.08
2023-08-16T07:39:10.738Z,19.22
2023-08-16T07:41:39.075Z,19.35
2023-08-16T07:44:07.748Z,19.55
2023-08-16T07:46:37.410Z,19.70
2023-08-16T07:49:05.838Z,19.68
2023-08-16T07:51:34.133Z,19.69
2023-08-16T07:54:02.389Z,19.63
2023-08-16T07:56:30.670Z,19.50
2023-08-16T07:58:58.910Z,19.34
2023-08-16T08:01:28.323Z,19.22
2023-08-16T08:03:59.770Z,19.23
2023-08-16T08:06:28.460Z,19.19
2023-08-16T08:08:57.155Z,19.36
2023-08-16T08:11:25.636Z,19.70
2023-08-16T08:13:53.954Z,20.05
2023-08-16T08:16:22.416Z,20.13
2023-08-16T08:18:50.765Z,20.17
2023-08-16T08:21:20.487Z,20.81
2023-08-16T08:23:48.857Z,22.66
2023-08-16T08:26:17.734Z,24.47
2023-08-16T08:28:46.500Z,25.88
2023-08-16T08:31:16.319Z,25.90
2023-08-16T08:33:45.794Z,25.27
2023-08-16T08:36:14.112Z,24.55
2023-08-16T08:38:44.182Z,23.96
2023-08-16T08:41:12.488Z,23.43
2023-08-16T08:43:57.531Z,22.90
2023-08-16T08:46:30.270Z,22.70
2023-08-16T08:49:01.744Z,22.77
2023-08-16T08:51:31.996Z,22.53
2023-08-16T08:54:01.781Z,22.39
2023-08-16T08:56:32.837Z,22.21
2023-08-16T08:59:13.788Z,22.30
2023-08-16T09:01:44.974Z,22.40
2023-08-16T09:04:16.571Z,22.24
2023-08-16T09:06:45.481Z,22.22
2023-08-16T09:09:16.491Z,22.27
2023-08-16T09:11:44.977Z,22.22
2023-08-16T09:14:13.412Z,22.22
2023-08-16T09:16:41.720Z,22.27
2023-08-16T09:19:15.391Z,22.37
2023-08-16T09:21:43.793Z,23.08
2023-08-16T09:24:12.671Z,24.29
2023-08-16T09:26:42.845Z,25.66
2023-08-16T09:29:11.212Z,26.07
2023-08-16T09:31:40.843Z,26.43
2023-08-16T09:34:09.441Z,26.36
2023-08-16T09:36:37.981Z,26.36
2023-08-16T09:39:10.894Z,26.98
2023-08-16T09:41:50.964Z,26.38
2023-08-16T09:44:19.825Z,25.77
2023-08-16T09:49:23.703Z,24.92
2023-08-16T09:54:25.897Z,25.33
2023-08-16T10:09:37.228Z,26.92
2023-08-16T10:12:07.955Z,26.57
2023-08-16T10:14:36.598Z,26.43
2023-08-16T10:17:07.445Z,26.16
2023-08-16T10:19:38.594Z,25.74
2023-08-16T10:22:31.195Z,25.26
2023-08-16T10:25:07.803Z,24.63
2023-08-16T10:27:39.632Z,24.26
2023-08-16T10:30:11.717Z,23.90
2023-08-16T10:32:43.482Z,23.80
2023-08-16T10:35:12.701Z,23.78
2023-08-16T10:37:41.433Z,23.86
2023-08-16T10:42:54.882Z,23.49
2023-08-16T10:45:54.167Z,23.37
2023-08-16T10:48:19.806Z,23.26
2023-08-16T10:50:57.028Z,23.10
2023-08-16T10:53:27.161Z,23.04
2023-08-16T10:55:58.217Z,23.13
2023-08-16T10:58:29.841Z,23.28
2023-08-16T11:01:00.131Z,23.44
2023-08-16T11:03:36.291Z,23.61
2023-08-16T11:06:10.191Z,23.67
2023-08-16T11:08:42.132Z,23.57
2023-08-16T11:11:11.271Z,23.51
2023-08-16T11:13:41.807Z,23.48
2023-08-16T11:16:11.216Z,23.48
2023-08-16T11:18:43.306Z,23.57
2023-08-16T11:21:15.733Z,23.58
2023-08-16T11:23:44.247Z,23.47
2023-08-16T11:26:13.563Z,23.50
2023-08-16T11:28:43.906Z,23.88
2023-08-16T11:31:13.379Z,24.15
2023-08-16T11:33:43.154Z,24.27
2023-08-16T11:36:14.883Z,24.41
2023-08-16T11:38:43.178Z,24.87
2023-08-16T11:41:11.733Z,25.19
2023-08-16T11:43:40.084Z,25.23
2023-08-16T11:46:10.005Z,25.25
2023-08-16T11:48:39.716Z,25.51
2023-08-16T11:51:12.490Z,25.67
2023-08-16T11:53:41.878Z,26.01
2023-08-16T11:56:10.928Z,26.32
2023-08-16T11:58:45.552Z,26.62
2023-08-16T12:01:16.666Z,26.82
2023-08-16T12:03:46.287Z,26.85
2023-08-16T12:06:17.408Z,26.95
2023-08-16T12:08:54.521Z,27.08
2023-08-16T12:11:31.720Z,27.14
2023-08-16T12:14:02.756Z,27.29
2023-08-16T12:16:33.805Z,27.38
2023-08-16T12:19:02.650Z,27.23
2023-08-16T12:21:30.966Z,27.00
2023-08-16T12:23:59.263Z,26.62
2023-08-16T12:26:27.581Z,26.36
2023-08-16T12:28:57.858Z,26.26
2023-08-16T12:31:26.360Z,26.39
2023-08-16T12:33:56.181Z,26.52
2023-08-16T12:36:24.736Z,26.45
2023-08-16T12:38:53.006Z,26.16
2023-08-16T12:41:21.410Z,25.99
2023-08-16T12:43:49.722Z,26.13
2023-08-16T12:46:18.129Z,26.11
2023-08-16T12:48:47.415Z,26.03
2023-08-16T12:51:18.250Z,25.71
2023-08-16T12:53:47.008Z,25.41
2023-08-16T12:56:15.594Z,25.22
2023-08-16T13:06:30.897Z,24.89
2023-08-16T13:09:04.049Z,24.97
2023-08-16T13:11:36.194Z,25.11
2023-08-16T13:14:10.899Z,25.04
2023-08-16T13:21:54.153Z,24.52
2023-08-16T13:24:38.319Z,24.85
2023-08-16T13:45:22.930Z,25.45
2023-08-16T13:47:43.510Z,25.46
2023-08-16T13:50:12.107Z,25.60
2023-08-16T13:52:41.902Z,25.59
2023-08-16T13:55:10.684Z,25.71
2023-08-16T13:57:39.346Z,25.72
2023-08-16T14:00:11.146Z,25.61
2023-08-16T14:02:42.626Z,25.50
2023-08-16T14:05:11.308Z,25.43
2023-08-16T14:07:43.066Z,25.70
2023-08-16T14:10:12.956Z,25.79
2023-08-16T14:12:41.415Z,25.85
2023-08-16T14:15:10.829Z,25.75
2023-08-16T14:17:39.234Z,25.47
2023-08-16T14:20:09.730Z,25.37
2023-08-16T14:22:38.339Z,25.34
2023-08-16T14:25:09.263Z,25.44
2023-08-16T14:27:39.142Z,25.65
2023-08-16T14:30:10.052Z,25.95
2023-08-16T14:32:39.879Z,26.08
2023-08-16T14:35:09.480Z,26.04
2023-08-16T14:37:37.917Z,25.77
2023-08-16T14:40:11.549Z,25.47
2023-08-16T14:42:43.387Z,25.05
2023-08-16T14:45:12.570Z,24.78
2023-08-16T14:47:40.876Z,24.84
2023-08-16T14:50:10.458Z,24.85
2023-08-16T14:52:38.983Z,24.53
2023-08-16T14:55:08.994Z,24.29
2023-08-16T14:57:37.665Z,24.15
2023-08-16T15:00:09.244Z,24.26
2023-08-16T15:02:37.732Z,24.45
2023-08-16T15:05:06.474Z,24.77
2023-08-16T15:07:36.222Z,24.96
2023-08-16T15:10:04.901Z,25.08
2023-08-16T15:12:36.200Z,25.12
2023-08-16T15:15:05.146Z,25.18
2023-08-16T15:17:34.991Z,25.17
2023-08-16T15:20:03.451Z,25.14
2023-08-16T15:22:31.807Z,25.21
2023-08-16T15:25:01.207Z,25.27
2023-08-16T15:27:29.687Z,25.34
2023-08-16T15:29:57.983Z,25.28
2023-08-16T15:32:29.056Z,25.11
2023-08-16T15:34:58.856Z,25.07
2023-08-16T15:37:26.250Z,25.10
2023-08-16T15:39:54.850Z,25.05
2023-08-16T15:42:23.894Z,25.07
2023-08-16T15:44:52.474Z,24.86
2023-08-16T15:47:20.907Z,24.73
2023-08-16T15:49:49.619Z,24.59
2023-08-16T15:52:19.386Z,24.53
2023-08-16T15:54:47.768Z,24.51
2023-08-16T15:57:16.134Z,24.53
2023-08-16T15:59:48.603Z,24.54
2023-08-16T16:02:17.591Z,24.65
2023-08-16T16:04:47.800Z,24.69
2023-08-16T16:07:18.328Z,24.68
2023-08-16T16:09:46.662Z,24.49
2023-08-16T16:12:14.964Z,24.29
2023-08-16T16:14:43.305Z,24.26
2023-08-16T16:17:23.935Z,24.42
2023-08-16T16:19:52.731Z,24.60
2023-08-16T16:22:22.489Z,24.67
2023-08-16T16:24:50.906Z,24.75
2023-08-16T16:27:19.249Z,24.74
2023-08-16T16:29:47.646Z,24.74
2023-08-16T16:32:16.040Z,24.53
2023-08-16T16:34:44.422Z,24.45
2023-08-16T16:37:12.847Z,24.42
2023-08-16T16:39:42.619Z,24.39
2023-08-16T16:42:10.952Z,24.29
2023-08-16T16:44:39.407Z,24.18
2023-08-16T16:47:07.773Z,24.16
2023-08-16T16:49:36.186Z,24.18
2023-08-16T16:52:04.533Z,24.06
2023-08-16T16:54:32.947Z,23.91
2023-08-16T16:57:02.702Z,23.86
2023-08-16T16:59:31.141Z,23.74
2023-08-16T17:01:59.406Z,23.62
2023-08-16T17:04:27.760Z,23.56
2023-08-16T17:06:59.029Z,23.51
2023-08-16T17:09:27.495Z,23.38
2023-08-16T17:11:55.990Z,23.23
2023-08-16T17:14:25.980Z,23.10
2023-08-16T17:16:54.340Z,23.06
2023-08-16T17:19:22.728Z,23.15
2023-08-16T17:21:51.156Z,23.07
2023-08-16T17:24:19.414Z,23.04
2023-08-16T17:26:47.717Z,22.98
2023-08-16T17:29:16.119Z,22.72
2023-08-16T17:31:45.976Z,22.69
2023-08-16T17:34:14.391Z,22.65
2023-08-16T17:36:42.734Z,22.64
2023-08-16T17:39:11.341Z,22.63
2023-08-16T17:41:39.701Z,22.47
2023-08-16T17:44:08.449Z,22.35
2023-08-16T17:46:36.823Z,22.18
2023-08-16T17:49:06.644Z,22.07
2023-08-16T17:51:34.994Z,21.98
2023-08-16T17:54:03.345Z,22.00
2023-08-16T17:56:31.714Z,22.04
2023-08-16T17:59:00.058Z,22.05
2023-08-16T18:01:28.432Z,22.05
2023-08-16T18:03:56.761Z,22.02
2023-08-16T18:06:26.636Z,22.00
2023-08-16T18:08:54.980Z,21.96
2023-08-16T18:11:23.299Z,21.94
2023-08-16T18:13:51.650Z,21.86
2023-08-16T18:16:20.113Z,21.78
2023-08-16T18:18:48.475Z,21.76
2023-08-16T18:21:16.934Z,21.70
2023-08-16T18:23:46.772Z,21.62
2023-08-16T18:26:15.198Z,21.55
2023-08-16T18:28:43.477Z,21.48
2023-08-16T18:31:11.865Z,21.37
2023-08-16T18:33:40.173Z,21.31
2023-08-16T18:36:08.559Z,21.21
2023-08-16T18:38:36.956Z,21.15
2023-08-16T18:41:08.811Z,21.09
2023-08-16T18:43:37.145Z,20.99
2023-08-16T18:46:05.488Z,20.94
2023-08-16T18:48:33.896Z,20.89
2023-08-16T18:51:02.423Z,20.84
2023-08-16T18:53:30.717Z,20.76
2023-08-16T18:55:59.034Z,20.73
2023-08-16T18:58:28.834Z,20.67
2023-08-16T19:00:58.078Z,20.59
2023-08-16T19:03:27.067Z,20.53
2023-08-16T19:05:56.315Z,20.46
2023-08-16T19:08:24.729Z,20.40
2023-08-16T19:10:53.287Z,20.32
2023-08-16T19:13:21.607Z,20.20
2023-08-16T19:15:51.310Z,20.10
2023-08-16T19:18:19.729Z,19.96
2023-08-16T19:20:48.058Z,19.83
2023-08-16T19:23:16.329Z,19.69
2023-08-16T19:25:44.672Z,19.56
2023-08-16T19:28:12.972Z,19.47
2023-08-16T19:30:41.414Z,19.41
2023-08-16T19:33:11.200Z,19.38
2023-08-16T19:35:40.176Z,19.36
2023-08-16T19:38:08.456Z,19.30
2023-08-16T19:40:37.205Z,19.25
2023-08-16T19:43:05.799Z,19.19
2023-08-16T19:45:34.261Z,19.15
2023-08-16T19:48:02.617Z,19.10
2023-08-16T19:50:32.452Z,19.09
2023-08-16T19:53:00.753Z,19.05
2023-08-16T19:55:29.256Z,19.02
2023-08-16T19:57:57.578Z,18.97
2023-08-16T20:00:29.038Z,18.91
2023-08-16T20:02:57.512Z,18.84
2023-08-16T20:05:25.998Z,18.80
2023-08-16T20:07:55.779Z,18.77
2023-08-16T20:10:24.104Z,18.75
2023-08-16T20:12:52.948Z,18.74
2023-08-16T20:15:21.393Z,18.72
2023-08-16T20:17:49.774Z,18.67
2023-08-16T20:20:18.869Z,18.65
2023-08-16T20:22:47.686Z,18.59
2023-08-16T20:25:17.656Z,18.55
2023-08-16T20:27:46.031Z,18.47
2023-08-16T20:30:15.228Z,18.44
2023-08-16T20:32:43.612Z,18.42
2023-08-16T20:35:11.965Z,18.38
2023-08-16T20:37:41.230Z,18.35
2023-08-16T20:40:11.710Z,18.32
2023-08-16T20:42:41.907Z,18.26
2023-08-16T20:45:12.393Z,18.22
2023-08-16T20:47:42.229Z,18.16
2023-08-16T20:50:12.415Z,18.10
2023-08-16T20:52:42.773Z,18.08
2023-08-16T20:55:12.000Z,18.03
2023-08-16T20:57:41.732Z,18.02
2023-08-16T21:00:11.025Z,17.99
2023-08-16T21:02:39.529Z,17.94
2023-08-16T21:05:08.146Z,17.90
2023-08-16T21:07:36.550Z,17.87
2023-08-16T21:10:05.287Z,17.86
2023-08-16T21:12:33.613Z,17.85
2023-08-16T21:15:03.920Z,17.84
2023-08-16T21:17:32.274Z,17.82
2023-08-16T21:20:00.582Z,17.80
2023-08-16T21:22:28.909Z,17.78
2023-08-16T21:24:57.442Z,17.78
2023-08-16T21:27:26.104Z,17.77
2023-08-16T21:29:54.641Z,17.75
2023-08-16T21:32:24.687Z,17.73
2023-08-16T21:34:53.067Z,17.72
2023-08-16T21:37:21.403Z,17.69
2023-08-16T21:39:51.069Z,17.65
2023-08-16T21:42:19.419Z,17.65
2023-08-16T21:44:47.748Z,17.64
2023-08-16T21:47:16.140Z,17.64
2023-08-16T21:49:45.794Z,17.63
2023-08-16T21:52:14.078Z,17.64
2023-08-16T21:54:42.326Z,17.62
2023-08-16T21:57:10.641Z,17.59
2023-08-16T21:59:38.928Z,17.58
2023-08-16T22:02:07.376Z,17.55
2023-08-16T22:04:35.670Z,17.56
2023-08-16T22:07:05.786Z,17.55
2023-08-16T22:09:35.076Z,17.50
2023-08-16T22:12:03.561Z,17.49
2023-08-16T22:14:31.867Z,17.49
2023-08-16T22:17:00.493Z,17.49
2023-08-16T22:19:28.880Z,17.49
2023-08-16T22:21:57.250Z,17.48
2023-08-16T22:24:26.955Z,17.48
2023-08-16T22:26:55.272Z,17.45
2023-08-16T22:29:23.534Z,17.43
2023-08-16T22:31:53.478Z,17.38
2023-08-16T22:34:23.301Z,17.37
2023-08-16T22:36:51.981Z,17.34
2023-08-16T22:39:20.597Z,17.32
2023-08-16T22:41:50.482Z,17.33
2023-08-16T22:44:19.277Z,17.32
2023-08-16T22:46:47.724Z,17.32
2023-08-16T22:49:16.092Z,17.32
2023-08-16T22:51:44.526Z,17.29
2023-08-16T22:54:13.005Z,17.28
2023-08-16T22:56:41.426Z,17.28
2023-08-16T22:59:11.300Z,17.28
2023-08-16T23:01:39.757Z,17.25
2023-08-16T23:04:08.133Z,17.25
2023-08-16T23:06:36.730Z,17.22
2023-08-16T23:09:06.626Z,17.19
2023-08-16T23:11:35.179Z,17.16
2023-08-16T23:14:03.575Z,17.16
2023-08-16T23:16:33.572Z,17.21
2023-08-16T23:19:02.161Z,17.24
2023-08-16T23:21:31.611Z,17.33
2023-08-16T23:23:59.953Z,17.38
2023-08-16T23:26:28.500Z,17.39
2023-08-16T23:28:56.998Z,17.44
2023-08-16T23:31:25.349Z,17.50
2023-08-16T23:33:55.643Z,17.59
2023-08-16T23:36:24.052Z,17.62
2023-08-16T23:38:52.397Z,17.66
2023-08-16T23:41:20.861Z,17.70
2023-08-16T23:43:49.246Z,17.74
2023-08-16T23:46:17.968Z,17.75
2023-08-16T23:48:46.372Z,17.71
2023-08-16T23:51:16.277Z,17.70
2023-08-16T23:53:44.742Z,17.70
2023-08-16T23:56:13.098Z,17.70
2023-08-16T23:58:42.598Z,17.63
